Godman Army Air Field
KFTK : rendu visible

Aérodrome :











RETROUVEZ-NOUS SUR...

 
LOGIN :

S'inscrire | Disclaimer

   EN    FR    IT 

 









Légende :    VFR   VFR Marginal   IFR   IFR Intensif   IFR Très Intensif
Visi : 
Plafond : 
>= 8 km
>= 3000ft
5 à 8 km
1000 à 3000 ft
1500m à 5 km
500 à 1000 ft
800 à 1500m
200 à 500 ft
< 800m
< 200 ft
Symboles :   Orages  Brouillard  Fortes neiges  Fortes précipitations  Vent > 20 kt






- Altitude de l'aérodrome : 756 ft


KFTK - Godman Army Air Field

DERNIER METAR :
  • 191556Z AUTO 15006KT 10SM OVC045 07/03 A2981 RMK AO2 SLP101 T00730028 $

METARs EXPIRÉS :
  • 191456Z AUTO 15004KT 10SM BKN046 OVC055 06/03 A2981 RMK AO2 SLP102 T00640028 50008 $
  • 191356Z AUTO 17003KT 10SM SCT045 OVC090 05/03 A2982 RMK AO2 SLP105 T00520029 $

TAF TAF KFTK
Valide du 19 à 09h jusqu'au 20 à 15h UTC


190900Z 1909/2015 18006KT 9999 SCT020 OVC060 620607 QNH2976INS
BECMG 1915/1916 18006KT 9000 -RA OVC015 620609 QNH2979INS
BECMG 1920/1921 21009KT 9999 NSW OVC010 620603 QNH2980INS
BECMG 1923/1924 29006KT 9999 OVC007 QNH2986INS
BECMG 2011/2012 30006KT 9999 OVC010 QNH3012INS TX11/1921Z TN00/1911Z



MET'MAP, la Météo Aéronautique d'un coup d'oeil ! - Copyright ORBIFLY Décembre 2007 - Disclaimer

ORBIFLY MET'MAP TEAM :

Programmation & Développement : Alexandra Zaïnal
Conception & Développement : Baudouin d'Aumeries
Co-Programmation & Développement : Marc-Olivier Méhu
Soutien technique & logistique : Manuel Goepfert

Contact : metmap@orbifly.com




SOURCES & CREDITS :

   NOAA       Earth
Advisory